sensor_id;sensor_type;location;lat;lon;timestamp;P1;durP1;ratioP1;P2;durP2;ratioP2
16416;SDS011;8317;52.186;5.688;2022-12-18T00:00:57;83.63;;;29.00;;
16416;SDS011;8317;52.186;5.688;2022-12-18T00:03:24;77.53;;;27.20;;
16416;SDS011;8317;52.186;5.688;2022-12-18T00:05:52;86.53;;;28.00;;
16416;SDS011;8317;52.186;5.688;2022-12-18T00:08:19;91.90;;;27.00;;
16416;SDS011;8317;52.186;5.688;2022-12-18T00:10:47;79.53;;;25.63;;
16416;SDS011;8317;52.186;5.688;2022-12-18T00:13:14;87.73;;;28.67;;
16416;SDS011;8317;52.186;5.688;2022-12-18T00:15:41;84.07;;;27.13;;
16416;SDS011;8317;52.186;5.688;2022-12-18T00:18:08;88.47;;;27.93;;
16416;SDS011;8317;52.186;5.688;2022-12-18T00:20:35;87.90;;;29.03;;
16416;SDS011;8317;52.186;5.688;2022-12-18T00:23:03;85.50;;;27.00;;
16416;SDS011;8317;52.186;5.688;2022-12-18T00:25:32;91.97;;;29.13;;
16416;SDS011;8317;52.186;5.688;2022-12-18T00:28:00;91.67;;;30.37;;
16416;SDS011;8317;52.186;5.688;2022-12-18T00:30:27;93.03;;;31.90;;
16416;SDS011;8317;52.186;5.688;2022-12-18T00:32:54;82.30;;;29.83;;
16416;SDS011;8317;52.186;5.688;2022-12-18T00:35:21;83.10;;;28.53;;
16416;SDS011;8317;52.186;5.688;2022-12-18T00:37:48;95.57;;;28.37;;
16416;SDS011;8317;52.186;5.688;2022-12-18T00:40:15;90.00;;;28.73;;
16416;SDS011;8317;52.186;5.688;2022-12-18T00:42:42;70.47;;;25.40;;
16416;SDS011;8317;52.186;5.688;2022-12-18T00:45:22;90.97;;;29.10;;
16416;SDS011;8317;52.186;5.688;2022-12-18T00:47:49;87.63;;;29.10;;
16416;SDS011;8317;52.186;5.688;2022-12-18T00:50:16;79.27;;;29.80;;
16416;SDS011;8317;52.186;5.688;2022-12-18T00:52:43;84.43;;;29.57;;
16416;SDS011;8317;52.186;5.688;2022-12-18T00:55:10;95.23;;;31.20;;
16416;SDS011;8317;52.186;5.688;2022-12-18T00:57:37;87.73;;;30.37;;
16416;SDS011;8317;52.186;5.688;2022-12-18T01:00:05;80.23;;;29.03;;
16416;SDS011;8317;52.186;5.688;2022-12-18T01:02:35;79.13;;;28.40;;
16416;SDS011;8317;52.186;5.688;2022-12-18T01:05:03;74.23;;;27.70;;
16416;SDS011;8317;52.186;5.688;2022-12-18T01:07:30;85.97;;;28.70;;
16416;SDS011;8317;52.186;5.688;2022-12-18T01:09:57;88.47;;;27.80;;
16416;SDS011;8317;52.186;5.688;2022-12-18T01:12:24;75.77;;;27.63;;
16416;SDS011;8317;52.186;5.688;2022-12-18T01:14:51;82.63;;;27.83;;
16416;SDS011;8317;52.186;5.688;2022-12-18T01:17:18;72.77;;;26.23;;
16416;SDS011;8317;52.186;5.688;2022-12-18T01:19:46;78.47;;;28.57;;
16416;SDS011;8317;52.186;5.688;2022-12-18T01:22:13;75.93;;;26.60;;
16416;SDS011;8317;52.186;5.688;2022-12-18T01:24:40;70.20;;;26.20;;
16416;SDS011;8317;52.186;5.688;2022-12-18T01:27:07;85.67;;;27.37;;
16416;SDS011;8317;52.186;5.688;2022-12-18T01:29:34;72.10;;;26.60;;
16416;SDS011;8317;52.186;5.688;2022-12-18T01:32:01;77.53;;;26.83;;
16416;SDS011;8317;52.186;5.688;2022-12-18T01:34:28;76.50;;;24.83;;
16416;SDS011;8317;52.186;5.688;2022-12-18T01:36:56;73.93;;;26.70;;
16416;SDS011;8317;52.186;5.688;2022-12-18T01:39:23;64.20;;;24.80;;
16416;SDS011;8317;52.186;5.688;2022-12-18T01:41:50;70.13;;;27.00;;
16416;SDS011;8317;52.186;5.688;2022-12-18T01:47:27;70.67;;;24.80;;
16416;SDS011;8317;52.186;5.688;2022-12-18T01:49:58;66.60;;;26.67;;
16416;SDS011;8317;52.186;5.688;2022-12-18T01:52:29;64.00;;;25.73;;
16416;SDS011;8317;52.186;5.688;2022-12-18T01:54:58;69.87;;;27.07;;
16416;SDS011;8317;52.186;5.688;2022-12-18T01:57:26;58.87;;;25.37;;
16416;SDS011;8317;52.186;5.688;2022-12-18T01:59:59;68.30;;;25.63;;
16416;SDS011;8317;52.186;5.688;2022-12-18T02:02:30;61.27;;;24.33;;
16416;SDS011;8317;52.186;5.688;2022-12-18T02:04:57;65.67;;;23.73;;
16416;SDS011;8317;52.186;5.688;2022-12-18T02:07:25;62.07;;;23.40;;
16416;SDS011;8317;52.186;5.688;2022-12-18T02:10:03;55.67;;;23.90;;
16416;SDS011;8317;52.186;5.688;2022-12-18T02:12:35;63.80;;;24.17;;
16416;SDS011;8317;52.186;5.688;2022-12-18T02:15:09;68.37;;;26.53;;
16416;SDS011;8317;52.186;5.688;2022-12-18T02:17:41;72.33;;;24.80;;
16416;SDS011;8317;52.186;5.688;2022-12-18T02:20:12;68.67;;;24.63;;
16416;SDS011;8317;52.186;5.688;2022-12-18T02:22:46;70.93;;;24.10;;
16416;SDS011;8317;52.186;5.688;2022-12-18T02:25:26;69.10;;;25.67;;
16416;SDS011;8317;52.186;5.688;2022-12-18T02:28:13;68.83;;;25.37;;
16416;SDS011;8317;52.186;5.688;2022-12-18T02:30:44;62.70;;;25.10;;
16416;SDS011;8317;52.186;5.688;2022-12-18T02:33:13;64.37;;;24.40;;
16416;SDS011;8317;52.186;5.688;2022-12-18T02:35:41;54.63;;;24.00;;
16416;SDS011;8317;52.186;5.688;2022-12-18T02:38:11;61.53;;;24.57;;
16416;SDS011;8317;52.186;5.688;2022-12-18T02:40:39;65.70;;;23.67;;
16416;SDS011;8317;52.186;5.688;2022-12-18T02:43:07;52.07;;;23.47;;
16416;SDS011;8317;52.186;5.688;2022-12-18T02:45:45;66.80;;;23.73;;
16416;SDS011;8317;52.186;5.688;2022-12-18T02:48:13;51.33;;;21.93;;
16416;SDS011;8317;52.186;5.688;2022-12-18T02:50:41;64.13;;;25.37;;
16416;SDS011;8317;52.186;5.688;2022-12-18T02:53:17;53.53;;;22.17;;
16416;SDS011;8317;52.186;5.688;2022-12-18T02:55:53;58.43;;;22.37;;
16416;SDS011;8317;52.186;5.688;2022-12-18T02:58:30;51.97;;;22.53;;
16416;SDS011;8317;52.186;5.688;2022-12-18T03:01:06;46.40;;;20.13;;
16416;SDS011;8317;52.186;5.688;2022-12-18T03:03:38;59.57;;;22.10;;
16416;SDS011;8317;52.186;5.688;2022-12-18T03:06:10;58.80;;;22.53;;
16416;SDS011;8317;52.186;5.688;2022-12-18T03:08:43;55.93;;;22.87;;
16416;SDS011;8317;52.186;5.688;2022-12-18T03:11:14;49.93;;;21.97;;
16416;SDS011;8317;52.186;5.688;2022-12-18T03:14:02;60.17;;;23.23;;
16416;SDS011;8317;52.186;5.688;2022-12-18T03:16:33;58.93;;;23.03;;
16416;SDS011;8317;52.186;5.688;2022-12-18T03:19:03;58.73;;;23.37;;
16416;SDS011;8317;52.186;5.688;2022-12-18T03:21:33;58.53;;;24.00;;
16416;SDS011;8317;52.186;5.688;2022-12-18T03:24:03;56.73;;;23.43;;
16416;SDS011;8317;52.186;5.688;2022-12-18T03:26:33;58.70;;;22.57;;
16416;SDS011;8317;52.186;5.688;2022-12-18T03:29:07;46.93;;;21.97;;
16416;SDS011;8317;52.186;5.688;2022-12-18T03:31:42;55.97;;;22.70;;
16416;SDS011;8317;52.186;5.688;2022-12-18T03:34:16;48.87;;;20.93;;
16416;SDS011;8317;52.186;5.688;2022-12-18T03:36:49;45.13;;;19.33;;
16416;SDS011;8317;52.186;5.688;2022-12-18T03:39:16;46.20;;;20.50;;
16416;SDS011;8317;52.186;5.688;2022-12-18T03:41:43;46.60;;;18.70;;
16416;SDS011;8317;52.186;5.688;2022-12-18T03:44:14;49.50;;;19.97;;
16416;SDS011;8317;52.186;5.688;2022-12-18T03:46:49;50.77;;;18.60;;
16416;SDS011;8317;52.186;5.688;2022-12-18T03:49:25;47.17;;;20.23;;
16416;SDS011;8317;52.186;5.688;2022-12-18T03:51:57;45.80;;;20.63;;
16416;SDS011;8317;52.186;5.688;2022-12-18T03:54:29;42.10;;;18.10;;
16416;SDS011;8317;52.186;5.688;2022-12-18T03:56:58;42.03;;;20.53;;
16416;SDS011;8317;52.186;5.688;2022-12-18T03:59:29;44.67;;;20.23;;
16416;SDS011;8317;52.186;5.688;2022-12-18T04:01:59;46.40;;;21.50;;
16416;SDS011;8317;52.186;5.688;2022-12-18T04:04:27;45.00;;;19.60;;
16416;SDS011;8317;52.186;5.688;2022-12-18T04:06:56;44.63;;;18.07;;
16416;SDS011;8317;52.186;5.688;2022-12-18T04:09:24;48.30;;;19.17;;
16416;SDS011;8317;52.186;5.688;2022-12-18T04:11:52;43.33;;;18.43;;
16416;SDS011;8317;52.186;5.688;2022-12-18T04:14:19;41.53;;;18.10;;
16416;SDS011;8317;52.186;5.688;2022-12-18T04:16:46;44.80;;;19.83;;
16416;SDS011;8317;52.186;5.688;2022-12-18T04:19:14;55.97;;;19.97;;
16416;SDS011;8317;52.186;5.688;2022-12-18T04:21:41;66.10;;;23.23;;
16416;SDS011;8317;52.186;5.688;2022-12-18T04:24:08;49.30;;;20.17;;
16416;SDS011;8317;52.186;5.688;2022-12-18T04:26:35;43.37;;;18.73;;
16416;SDS011;8317;52.186;5.688;2022-12-18T04:29:03;44.50;;;17.77;;
16416;SDS011;8317;52.186;5.688;2022-12-18T04:31:30;39.23;;;17.10;;
16416;SDS011;8317;52.186;5.688;2022-12-18T04:34:00;37.90;;;17.03;;
16416;SDS011;8317;52.186;5.688;2022-12-18T04:36:28;32.30;;;16.60;;
16416;SDS011;8317;52.186;5.688;2022-12-18T04:38:55;37.67;;;17.27;;
16416;SDS011;8317;52.186;5.688;2022-12-18T04:41:22;34.23;;;15.73;;
16416;SDS011;8317;52.186;5.688;2022-12-18T04:43:49;29.07;;;15.97;;
16416;SDS011;8317;52.186;5.688;2022-12-18T04:46:16;42.03;;;17.13;;
16416;SDS011;8317;52.186;5.688;2022-12-18T04:48:44;33.23;;;16.47;;
16416;SDS011;8317;52.186;5.688;2022-12-18T04:51:12;36.30;;;16.67;;
16416;SDS011;8317;52.186;5.688;2022-12-18T04:53:41;30.13;;;13.67;;
16416;SDS011;8317;52.186;5.688;2022-12-18T04:56:08;40.10;;;16.23;;
16416;SDS011;8317;52.186;5.688;2022-12-18T04:58:37;35.33;;;15.53;;
16416;SDS011;8317;52.186;5.688;2022-12-18T05:01:05;33.07;;;14.93;;
16416;SDS011;8317;52.186;5.688;2022-12-18T05:03:33;25.47;;;14.13;;
16416;SDS011;8317;52.186;5.688;2022-12-18T05:06:00;25.57;;;14.03;;
16416;SDS011;8317;52.186;5.688;2022-12-18T05:08:29;31.40;;;14.80;;
16416;SDS011;8317;52.186;5.688;2022-12-18T05:11:00;31.50;;;14.20;;
16416;SDS011;8317;52.186;5.688;2022-12-18T05:13:29;33.17;;;14.40;;
16416;SDS011;8317;52.186;5.688;2022-12-18T05:15:56;23.07;;;13.13;;
16416;SDS011;8317;52.186;5.688;2022-12-18T05:18:23;30.57;;;14.67;;
16416;SDS011;8317;52.186;5.688;2022-12-18T05:20:50;31.27;;;15.53;;
16416;SDS011;8317;52.186;5.688;2022-12-18T05:23:17;32.37;;;15.53;;
16416;SDS011;8317;52.186;5.688;2022-12-18T05:25:46;29.90;;;14.20;;
16416;SDS011;8317;52.186;5.688;2022-12-18T05:28:17;24.03;;;13.43;;
16416;SDS011;8317;52.186;5.688;2022-12-18T05:30:47;29.03;;;14.07;;
16416;SDS011;8317;52.186;5.688;2022-12-18T05:33:15;25.43;;;14.00;;
16416;SDS011;8317;52.186;5.688;2022-12-18T05:35:42;29.83;;;14.07;;
16416;SDS011;8317;52.186;5.688;2022-12-18T05:38:09;25.73;;;12.03;;
16416;SDS011;8317;52.186;5.688;2022-12-18T05:40:36;25.30;;;14.03;;
16416;SDS011;8317;52.186;5.688;2022-12-18T05:43:04;22.83;;;13.10;;
16416;SDS011;8317;52.186;5.688;2022-12-18T05:45:32;23.93;;;13.50;;
16416;SDS011;8317;52.186;5.688;2022-12-18T05:48:02;23.30;;;12.77;;
16416;SDS011;8317;52.186;5.688;2022-12-18T05:50:30;29.63;;;14.07;;
16416;SDS011;8317;52.186;5.688;2022-12-18T05:52:59;26.47;;;13.53;;
16416;SDS011;8317;52.186;5.688;2022-12-18T05:55:26;23.97;;;11.57;;
16416;SDS011;8317;52.186;5.688;2022-12-18T05:57:53;23.77;;;12.67;;
16416;SDS011;8317;52.186;5.688;2022-12-18T06:00:20;22.43;;;12.50;;
16416;SDS011;8317;52.186;5.688;2022-12-18T06:02:48;33.33;;;14.13;;
16416;SDS011;8317;52.186;5.688;2022-12-18T06:05:15;25.70;;;13.37;;
16416;SDS011;8317;52.186;5.688;2022-12-18T06:07:42;27.17;;;12.77;;
16416;SDS011;8317;52.186;5.688;2022-12-18T06:10:09;22.87;;;12.40;;
16416;SDS011;8317;52.186;5.688;2022-12-18T06:12:36;23.00;;;13.13;;
16416;SDS011;8317;52.186;5.688;2022-12-18T06:15:04;29.30;;;13.10;;
16416;SDS011;8317;52.186;5.688;2022-12-18T06:17:31;20.07;;;12.10;;
16416;SDS011;8317;52.186;5.688;2022-12-18T06:20:01;21.90;;;12.00;;
16416;SDS011;8317;52.186;5.688;2022-12-18T06:22:27;27.73;;;13.47;;
16416;SDS011;8317;52.186;5.688;2022-12-18T06:24:56;25.73;;;13.07;;
16416;SDS011;8317;52.186;5.688;2022-12-18T06:27:24;25.17;;;13.90;;
16416;SDS011;8317;52.186;5.688;2022-12-18T06:29:51;24.80;;;13.40;;
16416;SDS011;8317;52.186;5.688;2022-12-18T06:32:18;24.77;;;13.73;;
16416;SDS011;8317;52.186;5.688;2022-12-18T06:34:45;27.97;;;14.43;;
16416;SDS011;8317;52.186;5.688;2022-12-18T06:37:13;26.43;;;13.27;;
16416;SDS011;8317;52.186;5.688;2022-12-18T06:39:40;25.27;;;13.10;;
16416;SDS011;8317;52.186;5.688;2022-12-18T06:42:07;25.57;;;13.93;;
16416;SDS011;8317;52.186;5.688;2022-12-18T06:44:34;22.70;;;12.90;;
16416;SDS011;8317;52.186;5.688;2022-12-18T06:47:01;24.90;;;12.80;;
16416;SDS011;8317;52.186;5.688;2022-12-18T06:49:27;27.30;;;12.80;;
16416;SDS011;8317;52.186;5.688;2022-12-18T06:51:54;24.97;;;13.23;;
16416;SDS011;8317;52.186;5.688;2022-12-18T06:54:23;24.10;;;13.17;;
16416;SDS011;8317;52.186;5.688;2022-12-18T06:56:49;20.07;;;12.77;;
16416;SDS011;8317;52.186;5.688;2022-12-18T06:59:17;27.27;;;14.10;;
16416;SDS011;8317;52.186;5.688;2022-12-18T07:01:44;28.20;;;13.97;;
16416;SDS011;8317;52.186;5.688;2022-12-18T07:04:10;24.07;;;12.87;;
16416;SDS011;8317;52.186;5.688;2022-12-18T07:06:37;25.57;;;13.47;;
16416;SDS011;8317;52.186;5.688;2022-12-18T07:09:04;23.50;;;12.93;;
16416;SDS011;8317;52.186;5.688;2022-12-18T07:11:33;27.23;;;14.10;;
16416;SDS011;8317;52.186;5.688;2022-12-18T07:14:00;30.43;;;15.37;;
16416;SDS011;8317;52.186;5.688;2022-12-18T07:16:27;17.97;;;11.77;;
16416;SDS011;8317;52.186;5.688;2022-12-18T07:18:54;26.57;;;13.47;;
16416;SDS011;8317;52.186;5.688;2022-12-18T07:21:22;23.53;;;13.07;;
16416;SDS011;8317;52.186;5.688;2022-12-18T07:23:50;21.97;;;11.57;;
16416;SDS011;8317;52.186;5.688;2022-12-18T07:26:18;25.70;;;12.47;;
16416;SDS011;8317;52.186;5.688;2022-12-18T07:28:48;22.97;;;12.37;;
16416;SDS011;8317;52.186;5.688;2022-12-18T07:31:16;26.20;;;13.73;;
16416;SDS011;8317;52.186;5.688;2022-12-18T07:33:44;27.63;;;14.50;;
16416;SDS011;8317;52.186;5.688;2022-12-18T07:36:13;26.60;;;14.73;;
16416;SDS011;8317;52.186;5.688;2022-12-18T07:38:40;25.53;;;14.93;;
16416;SDS011;8317;52.186;5.688;2022-12-18T07:41:08;28.43;;;15.87;;
16416;SDS011;8317;52.186;5.688;2022-12-18T07:43:37;31.00;;;14.50;;
16416;SDS011;8317;52.186;5.688;2022-12-18T07:46:06;30.93;;;15.83;;
16416;SDS011;8317;52.186;5.688;2022-12-18T07:48:34;45.03;;;15.03;;
16416;SDS011;8317;52.186;5.688;2022-12-18T07:51:01;21.13;;;12.97;;
16416;SDS011;8317;52.186;5.688;2022-12-18T07:53:30;32.37;;;14.97;;
16416;SDS011;8317;52.186;5.688;2022-12-18T07:55:58;28.10;;;12.60;;
16416;SDS011;8317;52.186;5.688;2022-12-18T07:58:27;27.30;;;13.67;;
16416;SDS011;8317;52.186;5.688;2022-12-18T08:01:01;27.27;;;14.17;;
16416;SDS011;8317;52.186;5.688;2022-12-18T08:03:30;22.90;;;12.87;;
16416;SDS011;8317;52.186;5.688;2022-12-18T08:05:58;28.53;;;14.60;;
16416;SDS011;8317;52.186;5.688;2022-12-18T08:08:26;27.70;;;14.43;;
16416;SDS011;8317;52.186;5.688;2022-12-18T08:10:53;23.10;;;13.63;;
16416;SDS011;8317;52.186;5.688;2022-12-18T08:13:20;28.20;;;14.03;;
16416;SDS011;8317;52.186;5.688;2022-12-18T08:15:54;22.87;;;12.40;;
16416;SDS011;8317;52.186;5.688;2022-12-18T08:18:22;23.37;;;12.53;;
16416;SDS011;8317;52.186;5.688;2022-12-18T08:20:50;22.50;;;12.00;;
16416;SDS011;8317;52.186;5.688;2022-12-18T08:23:17;23.23;;;13.03;;
16416;SDS011;8317;52.186;5.688;2022-12-18T08:25:44;24.27;;;13.40;;
16416;SDS011;8317;52.186;5.688;2022-12-18T08:28:11;22.87;;;13.17;;
16416;SDS011;8317;52.186;5.688;2022-12-18T08:30:38;37.90;;;17.70;;
16416;SDS011;8317;52.186;5.688;2022-12-18T08:33:05;27.30;;;13.93;;
16416;SDS011;8317;52.186;5.688;2022-12-18T08:35:34;24.50;;;12.60;;
16416;SDS011;8317;52.186;5.688;2022-12-18T08:38:03;25.30;;;14.73;;
16416;SDS011;8317;52.186;5.688;2022-12-18T08:40:30;33.07;;;14.47;;
16416;SDS011;8317;52.186;5.688;2022-12-18T08:42:57;24.37;;;12.00;;
16416;SDS011;8317;52.186;5.688;2022-12-18T08:45:42;19.60;;;11.33;;
16416;SDS011;8317;52.186;5.688;2022-12-18T08:48:08;27.33;;;12.33;;
16416;SDS011;8317;52.186;5.688;2022-12-18T08:50:37;20.97;;;10.67;;
16416;SDS011;8317;52.186;5.688;2022-12-18T08:53:05;22.67;;;12.23;;
16416;SDS011;8317;52.186;5.688;2022-12-18T08:55:32;24.23;;;12.03;;
16416;SDS011;8317;52.186;5.688;2022-12-18T08:57:59;23.03;;;12.33;;
16416;SDS011;8317;52.186;5.688;2022-12-18T09:00:26;20.90;;;11.77;;
16416;SDS011;8317;52.186;5.688;2022-12-18T09:02:53;25.53;;;13.57;;
16416;SDS011;8317;52.186;5.688;2022-12-18T09:05:20;21.13;;;11.73;;
16416;SDS011;8317;52.186;5.688;2022-12-18T09:07:47;25.10;;;11.80;;
16416;SDS011;8317;52.186;5.688;2022-12-18T09:10:15;16.63;;;10.60;;
16416;SDS011;8317;52.186;5.688;2022-12-18T09:12:42;20.97;;;11.20;;
16416;SDS011;8317;52.186;5.688;2022-12-18T09:15:09;20.37;;;11.47;;
16416;SDS011;8317;52.186;5.688;2022-12-18T09:17:36;18.90;;;9.80;;
16416;SDS011;8317;52.186;5.688;2022-12-18T09:20:03;18.90;;;10.20;;
16416;SDS011;8317;52.186;5.688;2022-12-18T09:22:31;16.23;;;9.67;;
16416;SDS011;8317;52.186;5.688;2022-12-18T09:24:58;15.83;;;10.10;;
16416;SDS011;8317;52.186;5.688;2022-12-18T09:27:26;21.67;;;10.90;;
16416;SDS011;8317;52.186;5.688;2022-12-18T09:29:53;18.53;;;9.97;;
16416;SDS011;8317;52.186;5.688;2022-12-18T09:32:20;17.40;;;10.43;;
16416;SDS011;8317;52.186;5.688;2022-12-18T09:34:47;19.77;;;10.20;;
16416;SDS011;8317;52.186;5.688;2022-12-18T09:37:14;18.50;;;8.97;;
16416;SDS011;8317;52.186;5.688;2022-12-18T09:39:41;16.90;;;8.93;;
16416;SDS011;8317;52.186;5.688;2022-12-18T09:42:09;18.90;;;10.57;;
16416;SDS011;8317;52.186;5.688;2022-12-18T09:44:46;17.77;;;9.83;;
16416;SDS011;8317;52.186;5.688;2022-12-18T09:47:17;19.47;;;11.30;;
16416;SDS011;8317;52.186;5.688;2022-12-18T09:49:49;20.47;;;11.33;;
16416;SDS011;8317;52.186;5.688;2022-12-18T09:52:20;20.03;;;10.60;;
16416;SDS011;8317;52.186;5.688;2022-12-18T09:54:50;20.37;;;10.03;;
16416;SDS011;8317;52.186;5.688;2022-12-18T09:57:22;20.13;;;10.60;;
16416;SDS011;8317;52.186;5.688;2022-12-18T09:59:53;17.10;;;9.50;;
16416;SDS011;8317;52.186;5.688;2022-12-18T10:02:23;18.40;;;10.13;;
16416;SDS011;8317;52.186;5.688;2022-12-18T10:04:56;25.07;;;12.50;;
16416;SDS011;8317;52.186;5.688;2022-12-18T10:07:33;25.83;;;13.20;;
16416;SDS011;8317;52.186;5.688;2022-12-18T10:10:19;31.53;;;16.17;;
16416;SDS011;8317;52.186;5.688;2022-12-18T10:12:58;35.50;;;16.93;;
16416;SDS011;8317;52.186;5.688;2022-12-18T10:15:34;39.50;;;19.23;;
16416;SDS011;8317;52.186;5.688;2022-12-18T10:18:10;25.67;;;12.80;;
16416;SDS011;8317;52.186;5.688;2022-12-18T10:20:47;21.47;;;11.67;;
16416;SDS011;8317;52.186;5.688;2022-12-18T10:23:18;17.03;;;9.53;;
16416;SDS011;8317;52.186;5.688;2022-12-18T10:25:53;18.33;;;8.90;;
16416;SDS011;8317;52.186;5.688;2022-12-18T10:28:24;18.40;;;9.57;;
16416;SDS011;8317;52.186;5.688;2022-12-18T10:30:54;18.67;;;9.90;;
16416;SDS011;8317;52.186;5.688;2022-12-18T10:33:21;18.67;;;9.97;;
16416;SDS011;8317;52.186;5.688;2022-12-18T10:35:50;17.97;;;10.37;;
16416;SDS011;8317;52.186;5.688;2022-12-18T10:38:21;20.20;;;10.47;;
16416;SDS011;8317;52.186;5.688;2022-12-18T10:40:52;19.60;;;12.00;;
16416;SDS011;8317;52.186;5.688;2022-12-18T10:43:22;24.33;;;11.53;;
16416;SDS011;8317;52.186;5.688;2022-12-18T10:45:59;17.93;;;9.20;;
16416;SDS011;8317;52.186;5.688;2022-12-18T10:48:28;15.90;;;9.40;;
16416;SDS011;8317;52.186;5.688;2022-12-18T10:50:59;16.67;;;9.67;;
16416;SDS011;8317;52.186;5.688;2022-12-18T10:53:28;17.77;;;8.77;;
16416;SDS011;8317;52.186;5.688;2022-12-18T10:55:57;15.73;;;8.63;;
16416;SDS011;8317;52.186;5.688;2022-12-18T10:58:25;15.80;;;9.23;;
16416;SDS011;8317;52.186;5.688;2022-12-18T11:01:05;16.80;;;9.47;;
16416;SDS011;8317;52.186;5.688;2022-12-18T11:03:37;19.10;;;10.43;;
16416;SDS011;8317;52.186;5.688;2022-12-18T11:06:08;29.13;;;13.97;;
16416;SDS011;8317;52.186;5.688;2022-12-18T11:08:37;19.43;;;12.13;;
16416;SDS011;8317;52.186;5.688;2022-12-18T11:11:06;17.73;;;12.00;;
16416;SDS011;8317;52.186;5.688;2022-12-18T11:13:41;19.50;;;11.57;;
16416;SDS011;8317;52.186;5.688;2022-12-18T11:16:23;19.80;;;10.83;;
16416;SDS011;8317;52.186;5.688;2022-12-18T11:18:50;21.10;;;11.37;;
16416;SDS011;8317;52.186;5.688;2022-12-18T11:21:17;17.77;;;10.40;;
16416;SDS011;8317;52.186;5.688;2022-12-18T11:23:46;22.00;;;12.67;;
16416;SDS011;8317;52.186;5.688;2022-12-18T11:26:16;16.10;;;8.93;;
16416;SDS011;8317;52.186;5.688;2022-12-18T11:28:43;18.27;;;11.23;;
16416;SDS011;8317;52.186;5.688;2022-12-18T11:31:20;18.43;;;10.37;;
16416;SDS011;8317;52.186;5.688;2022-12-18T11:33:53;20.37;;;11.90;;
16416;SDS011;8317;52.186;5.688;2022-12-18T11:36:24;21.00;;;10.73;;
16416;SDS011;8317;52.186;5.688;2022-12-18T11:38:54;16.93;;;10.47;;
16416;SDS011;8317;52.186;5.688;2022-12-18T11:41:25;19.00;;;10.20;;
16416;SDS011;8317;52.186;5.688;2022-12-18T11:44:11;15.27;;;9.73;;
16416;SDS011;8317;52.186;5.688;2022-12-18T11:46:45;21.67;;;10.53;;
16416;SDS011;8317;52.186;5.688;2022-12-18T11:49:17;16.57;;;10.03;;
16416;SDS011;8317;52.186;5.688;2022-12-18T11:51:49;20.83;;;11.33;;
16416;SDS011;8317;52.186;5.688;2022-12-18T11:54:21;30.47;;;13.87;;
16416;SDS011;8317;52.186;5.688;2022-12-18T11:56:49;27.17;;;13.17;;
16416;SDS011;8317;52.186;5.688;2022-12-18T11:59:24;22.30;;;10.37;;
16416;SDS011;8317;52.186;5.688;2022-12-18T12:02:00;23.00;;;11.17;;
16416;SDS011;8317;52.186;5.688;2022-12-18T12:04:41;23.57;;;11.53;;
16416;SDS011;8317;52.186;5.688;2022-12-18T12:07:35;27.53;;;13.57;;
16416;SDS011;8317;52.186;5.688;2022-12-18T12:10:13;26.80;;;14.20;;
16416;SDS011;8317;52.186;5.688;2022-12-18T12:12:53;25.60;;;12.77;;
16416;SDS011;8317;52.186;5.688;2022-12-18T12:15:31;20.63;;;11.90;;
16416;SDS011;8317;52.186;5.688;2022-12-18T12:18:07;15.43;;;8.97;;
16416;SDS011;8317;52.186;5.688;2022-12-18T12:20:42;21.80;;;10.83;;
16416;SDS011;8317;52.186;5.688;2022-12-18T12:23:19;16.03;;;9.60;;
16416;SDS011;8317;52.186;5.688;2022-12-18T12:25:54;24.97;;;12.00;;
16416;SDS011;8317;52.186;5.688;2022-12-18T12:28:31;21.07;;;11.20;;
16416;SDS011;8317;52.186;5.688;2022-12-18T12:31:17;22.10;;;11.53;;
16416;SDS011;8317;52.186;5.688;2022-12-18T12:33:53;18.83;;;10.87;;
16416;SDS011;8317;52.186;5.688;2022-12-18T12:36:30;22.47;;;11.40;;
16416;SDS011;8317;52.186;5.688;2022-12-18T12:39:06;20.70;;;11.43;;
16416;SDS011;8317;52.186;5.688;2022-12-18T12:41:37;14.90;;;9.23;;
16416;SDS011;8317;52.186;5.688;2022-12-18T12:44:25;26.60;;;12.53;;
16416;SDS011;8317;52.186;5.688;2022-12-18T12:46:55;18.53;;;9.83;;
16416;SDS011;8317;52.186;5.688;2022-12-18T12:49:27;19.10;;;9.57;;
16416;SDS011;8317;52.186;5.688;2022-12-18T12:51:59;20.77;;;11.03;;
16416;SDS011;8317;52.186;5.688;2022-12-18T12:54:33;21.27;;;10.73;;
16416;SDS011;8317;52.186;5.688;2022-12-18T12:57:02;27.10;;;12.10;;
16416;SDS011;8317;52.186;5.688;2022-12-18T12:59:40;52.90;;;20.60;;
16416;SDS011;8317;52.186;5.688;2022-12-18T13:02:17;40.80;;;16.50;;
16416;SDS011;8317;52.186;5.688;2022-12-18T13:04:49;27.23;;;13.93;;
16416;SDS011;8317;52.186;5.688;2022-12-18T13:07:24;29.67;;;14.30;;
16416;SDS011;8317;52.186;5.688;2022-12-18T13:10:13;25.60;;;11.87;;
16416;SDS011;8317;52.186;5.688;2022-12-18T13:12:56;27.83;;;13.73;;
16416;SDS011;8317;52.186;5.688;2022-12-18T13:15:25;30.07;;;15.30;;
16416;SDS011;8317;52.186;5.688;2022-12-18T13:18:05;41.57;;;19.10;;
16416;SDS011;8317;52.186;5.688;2022-12-18T13:20:43;36.63;;;18.17;;
16416;SDS011;8317;52.186;5.688;2022-12-18T13:23:28;35.60;;;16.83;;
16416;SDS011;8317;52.186;5.688;2022-12-18T13:25:59;25.80;;;13.60;;
16416;SDS011;8317;52.186;5.688;2022-12-18T13:28:50;16.17;;;9.57;;
16416;SDS011;8317;52.186;5.688;2022-12-18T13:34:35;17.30;;;9.83;;
16416;SDS011;8317;52.186;5.688;2022-12-18T13:43:30;15.53;;;9.40;;
16416;SDS011;8317;52.186;5.688;2022-12-18T13:46:04;28.10;;;16.07;;
16416;SDS011;8317;52.186;5.688;2022-12-18T13:48:50;18.97;;;10.70;;
16416;SDS011;8317;52.186;5.688;2022-12-18T13:51:20;20.40;;;10.77;;
16416;SDS011;8317;52.186;5.688;2022-12-18T13:53:50;19.37;;;11.87;;
16416;SDS011;8317;52.186;5.688;2022-12-18T13:56:22;20.60;;;11.47;;
16416;SDS011;8317;52.186;5.688;2022-12-18T13:59:04;18.57;;;10.77;;
16416;SDS011;8317;52.186;5.688;2022-12-18T14:01:41;21.07;;;11.83;;
16416;SDS011;8317;52.186;5.688;2022-12-18T14:04:09;18.63;;;10.20;;
16416;SDS011;8317;52.186;5.688;2022-12-18T14:06:37;26.20;;;13.47;;
16416;SDS011;8317;52.186;5.688;2022-12-18T14:09:06;20.53;;;10.77;;
16416;SDS011;8317;52.186;5.688;2022-12-18T14:11:37;19.77;;;10.77;;
16416;SDS011;8317;52.186;5.688;2022-12-18T14:14:04;19.33;;;10.37;;
16416;SDS011;8317;52.186;5.688;2022-12-18T14:16:33;20.93;;;11.57;;
16416;SDS011;8317;52.186;5.688;2022-12-18T14:19:00;21.23;;;12.10;;
16416;SDS011;8317;52.186;5.688;2022-12-18T14:21:28;24.30;;;13.93;;
16416;SDS011;8317;52.186;5.688;2022-12-18T14:24:12;28.87;;;15.53;;
16416;SDS011;8317;52.186;5.688;2022-12-18T14:26:41;35.50;;;17.50;;
16416;SDS011;8317;52.186;5.688;2022-12-18T14:29:18;31.47;;;16.40;;
16416;SDS011;8317;52.186;5.688;2022-12-18T14:32:05;25.13;;;15.77;;
16416;SDS011;8317;52.186;5.688;2022-12-18T14:34:42;22.10;;;11.70;;
16416;SDS011;8317;52.186;5.688;2022-12-18T14:37:10;20.13;;;11.70;;
16416;SDS011;8317;52.186;5.688;2022-12-18T14:39:38;20.07;;;11.13;;
16416;SDS011;8317;52.186;5.688;2022-12-18T14:42:05;15.97;;;10.63;;
16416;SDS011;8317;52.186;5.688;2022-12-18T14:44:36;16.37;;;10.70;;
16416;SDS011;8317;52.186;5.688;2022-12-18T14:47:03;18.10;;;10.57;;
16416;SDS011;8317;52.186;5.688;2022-12-18T14:49:31;16.27;;;10.33;;
16416;SDS011;8317;52.186;5.688;2022-12-18T14:51:59;24.17;;;13.53;;
16416;SDS011;8317;52.186;5.688;2022-12-18T14:54:27;21.27;;;12.77;;
16416;SDS011;8317;52.186;5.688;2022-12-18T14:56:58;23.20;;;11.70;;
16416;SDS011;8317;52.186;5.688;2022-12-18T14:59:28;19.97;;;11.73;;
16416;SDS011;8317;52.186;5.688;2022-12-18T15:01:58;23.03;;;11.63;;
16416;SDS011;8317;52.186;5.688;2022-12-18T15:04:29;26.43;;;13.37;;
16416;SDS011;8317;52.186;5.688;2022-12-18T15:07:02;19.70;;;13.03;;